createdAt,value
2019-05-01T00:00:15.787Z,11.20
2019-05-01T00:03:04.548Z,11.20
2019-05-01T00:05:40.626Z,11.20
2019-05-01T00:08:14.606Z,11.30
2019-05-01T00:10:48.072Z,11.20
2019-05-01T00:13:21.539Z,11.20
2019-05-01T00:15:55.966Z,11.10
2019-05-01T00:18:29.951Z,11.10
2019-05-01T00:21:03.870Z,11.10
2019-05-01T00:23:37.652Z,11.10
2019-05-01T00:26:11.456Z,11.00
2019-05-01T00:28:45.552Z,11.10
2019-05-01T00:31:20.194Z,11.10
2019-05-01T00:33:55.432Z,11.10
2019-05-01T00:36:30.078Z,11.10
2019-05-01T00:39:04.081Z,11.10
2019-05-01T00:41:37.030Z,11.10
2019-05-01T00:44:10.915Z,11.10
2019-05-01T00:46:44.704Z,11.10
2019-05-01T00:49:18.076Z,11.10
2019-05-01T00:51:51.681Z,11.00
2019-05-01T00:54:25.528Z,11.10
2019-05-01T00:57:05.651Z,11.00
2019-05-01T00:59:54.823Z,10.90
2019-05-01T01:02:51.087Z,10.90
2019-05-01T01:05:24.914Z,10.90
2019-05-01T01:07:58.379Z,10.90
2019-05-01T01:10:32.545Z,10.80
2019-05-01T01:13:06.361Z,10.80
2019-05-01T01:15:41.166Z,10.80
2019-05-01T01:18:16.130Z,10.70
2019-05-01T01:20:49.755Z,10.70
2019-05-01T01:23:23.203Z,10.70
2019-05-01T01:25:56.981Z,10.70
2019-05-01T01:28:30.148Z,10.70
2019-05-01T01:31:04.135Z,10.70
2019-05-01T01:33:38.666Z,10.70
2019-05-01T01:36:12.139Z,10.70
2019-05-01T01:38:45.564Z,10.70
2019-05-01T01:41:20.066Z,10.80
2019-05-01T01:44:04.462Z,10.80
2019-05-01T01:46:40.531Z,10.80
2019-05-01T01:49:14.070Z,10.70
2019-05-01T01:51:47.735Z,10.70
2019-05-01T01:54:21.424Z,10.70
2019-05-01T01:56:54.981Z,10.60
2019-05-01T01:59:28.584Z,10.60
2019-05-01T02:02:23.151Z,10.60
2019-05-01T02:05:17.966Z,10.70
2019-05-01T02:07:52.284Z,10.70
2019-05-01T02:10:26.511Z,10.70
2019-05-01T02:13:00.391Z,10.70
2019-05-01T02:15:34.814Z,10.70
2019-05-01T02:18:26.834Z,10.70
2019-05-01T02:20:59.944Z,10.70
2019-05-01T02:23:34.109Z,10.70
2019-05-01T02:26:12.950Z,10.80
2019-05-01T02:28:55.221Z,10.80
2019-05-01T02:31:33.544Z,10.80
2019-05-01T02:34:07.466Z,10.80
2019-05-01T02:36:42.906Z,10.80
2019-05-01T02:39:18.087Z,10.70
2019-05-01T02:41:54.187Z,10.70
2019-05-01T02:44:43.863Z,10.70
2019-05-01T02:47:24.839Z,10.70
2019-05-01T02:50:12.453Z,10.70
2019-05-01T02:52:45.869Z,10.70
2019-05-01T02:55:40.991Z,10.70
2019-05-01T02:58:14.487Z,10.70
2019-05-01T03:00:48.803Z,10.70
2019-05-01T03:03:22.426Z,10.70
2019-05-01T03:05:56.115Z,10.70
2019-05-01T03:08:29.885Z,10.70
2019-05-01T03:11:03.480Z,10.60
2019-05-01T03:13:39.282Z,10.60
2019-05-01T03:16:14.579Z,10.60
2019-05-01T03:18:52.368Z,10.60
2019-05-01T03:21:50.210Z,10.60
2019-05-01T03:24:26.997Z,10.60
2019-05-01T03:27:01.182Z,10.60
2019-05-01T03:29:34.943Z,10.50
2019-05-01T03:32:19.274Z,10.50
2019-05-01T03:34:43.770Z,10.50
2019-05-01T03:37:18.052Z,10.60
2019-05-01T03:39:51.906Z,10.50
2019-05-01T03:42:26.417Z,10.50
2019-05-01T03:44:59.857Z,10.60
2019-05-01T03:47:33.875Z,10.50
2019-05-01T03:50:07.800Z,10.50
2019-05-01T03:52:41.624Z,10.50
2019-05-01T03:55:15.777Z,10.60
2019-05-01T03:57:48.867Z,10.60
2019-05-01T04:00:31.611Z,10.50
2019-05-01T04:03:35.929Z,10.50
2019-05-01T04:06:09.939Z,10.50
2019-05-01T04:08:43.284Z,10.50
2019-05-01T04:11:16.775Z,10.50
2019-05-01T04:13:50.558Z,10.50
2019-05-01T04:16:24.819Z,10.40
2019-05-01T04:18:58.573Z,10.40
2019-05-01T04:21:37.777Z,10.40
2019-05-01T04:24:11.554Z,10.40
2019-05-01T04:26:47.193Z,10.30
2019-05-01T04:29:28.713Z,10.30
2019-05-01T04:32:25.338Z,10.30
2019-05-01T04:35:19.370Z,10.30
2019-05-01T04:38:00.826Z,10.30
2019-05-01T04:40:37.383Z,10.30
2019-05-01T04:43:16.285Z,10.30
2019-05-01T04:45:56.509Z,10.30
2019-05-01T04:48:35.514Z,10.40
2019-05-01T04:51:15.831Z,10.40
2019-05-01T04:53:57.037Z,10.40
2019-05-01T04:56:34.202Z,10.40
2019-05-01T04:59:13.409Z,10.40
2019-05-01T05:01:57.694Z,10.40
2019-05-01T05:04:46.941Z,10.40
2019-05-01T05:07:26.866Z,10.40
2019-05-01T05:10:06.017Z,10.60
2019-05-01T05:12:52.419Z,10.60
2019-05-01T05:15:57.941Z,10.60
2019-05-01T05:18:37.991Z,10.60
2019-05-01T05:21:15.059Z,10.70
2019-05-01T05:23:53.400Z,10.70
2019-05-01T05:26:33.131Z,10.80
2019-05-01T05:29:09.466Z,10.80
2019-05-01T05:31:57.796Z,10.80
2019-05-01T05:34:38.190Z,10.90
2019-05-01T05:37:22.095Z,11.00
2019-05-01T05:39:59.642Z,11.10
2019-05-01T05:42:40.925Z,11.30
2019-05-01T05:45:19.609Z,11.40
2019-05-01T05:47:59.472Z,11.50
2019-05-01T05:50:41.318Z,11.60
2019-05-01T05:53:25.774Z,11.60
2019-05-01T05:56:07.747Z,11.70
2019-05-01T05:58:55.171Z,11.80
2019-05-01T06:01:45.287Z,11.90
2019-05-01T06:05:02.582Z,12.10
2019-05-01T06:07:57.979Z,12.30
2019-05-01T06:11:10.508Z,12.60
2019-05-01T06:14:09.710Z,12.80
2019-05-01T06:17:14.242Z,13.00
2019-05-01T06:20:00.292Z,13.10
2019-05-01T06:22:57.624Z,13.60
2019-05-01T06:25:39.285Z,13.80
2019-05-01T06:28:19.892Z,14.10
2019-05-01T06:30:56.383Z,14.30
2019-05-01T06:33:30.623Z,14.50
2019-05-01T06:36:13.181Z,14.50
2019-05-01T06:38:46.188Z,14.60
2019-05-01T06:41:20.494Z,14.70
2019-05-01T06:44:04.409Z,14.90
2019-05-01T06:47:03.316Z,14.90
2019-05-01T06:49:44.993Z,15.10
2019-05-01T06:52:27.717Z,15.10
2019-05-01T06:54:58.464Z,15.20
2019-05-01T06:57:33.429Z,15.00
2019-05-01T07:00:10.162Z,14.90
2019-05-01T07:02:44.929Z,14.80
2019-05-01T07:05:21.976Z,14.70
2019-05-01T07:07:58.774Z,14.70
2019-05-01T07:10:43.155Z,14.80
2019-05-01T07:13:10.529Z,14.90
2019-05-01T07:15:44.551Z,15.10
2019-05-01T07:18:18.810Z,15.30
2019-05-01T07:20:56.072Z,15.30
2019-05-01T07:23:30.759Z,15.30
2019-05-01T07:26:09.978Z,15.20
2019-05-01T07:28:44.899Z,15.30
2019-05-01T07:31:19.862Z,15.30
2019-05-01T07:33:57.530Z,15.30
2019-05-01T07:36:33.567Z,15.30
2019-05-01T07:39:14.787Z,15.40
2019-05-01T07:41:49.287Z,15.50
2019-05-01T07:44:33.825Z,15.70
2019-05-01T07:47:30.553Z,15.90
2019-05-01T07:50:07.188Z,16.20
2019-05-01T07:52:43.682Z,16.40
2019-05-01T07:55:22.334Z,16.90
2019-05-01T07:57:58.638Z,17.10
2019-05-01T08:00:43.287Z,17.20
2019-05-01T08:03:17.835Z,17.30
2019-05-01T08:05:52.220Z,17.50
2019-05-01T08:08:26.402Z,17.40
2019-05-01T08:11:05.312Z,17.60
2019-05-01T08:13:36.365Z,17.50
2019-05-01T08:16:10.125Z,17.20
2019-05-01T08:18:49.415Z,17.00
2019-05-01T08:21:31.155Z,16.80
2019-05-01T08:24:04.896Z,16.60
2019-05-01T08:26:39.559Z,16.70
2019-05-01T08:29:36.999Z,16.70
2019-05-01T08:32:26.916Z,16.70
2019-05-01T08:35:05.557Z,17.10
2019-05-01T08:37:39.040Z,17.20
2019-05-01T08:40:15.986Z,17.30
2019-05-01T08:42:48.532Z,17.40
2019-05-01T08:46:00.022Z,17.50
2019-05-01T08:48:47.535Z,17.60
2019-05-01T08:51:21.850Z,17.60
2019-05-01T08:53:57.777Z,17.60
2019-05-01T08:56:32.134Z,17.60
2019-05-01T08:59:06.392Z,17.70
2019-05-01T09:01:40.590Z,17.80
2019-05-01T09:04:15.507Z,17.80
2019-05-01T09:06:49.922Z,17.90
2019-05-01T09:09:23.640Z,17.90
2019-05-01T09:11:57.174Z,18.10
2019-05-01T09:14:35.050Z,18.50
2019-05-01T09:17:08.236Z,18.80
2019-05-01T09:19:42.379Z,19.50
2019-05-01T09:22:21.861Z,19.80
2019-05-01T09:24:59.989Z,20.00
2019-05-01T09:27:59.566Z,20.00
2019-05-01T09:30:37.304Z,19.90
2019-05-01T09:33:17.049Z,19.80
2019-05-01T09:35:50.601Z,19.80
2019-05-01T09:38:24.412Z,19.80
2019-05-01T09:40:59.461Z,20.00
2019-05-01T09:43:35.535Z,20.20
2019-05-01T09:46:10.395Z,20.10
2019-05-01T09:48:47.163Z,20.10
2019-05-01T09:51:42.460Z,19.70
2019-05-01T09:54:34.839Z,19.20
2019-05-01T09:57:10.385Z,18.60
2019-05-01T09:59:43.965Z,18.40
2019-05-01T10:02:19.355Z,18.20
2019-05-01T10:04:54.681Z,18.00
2019-05-01T10:07:30.685Z,17.90
2019-05-01T10:10:04.630Z,17.80
2019-05-01T10:12:41.696Z,17.80
2019-05-01T10:15:15.625Z,17.80
2019-05-01T10:17:50.837Z,17.70
2019-05-01T10:20:27.900Z,17.70
2019-05-01T10:23:07.751Z,17.50
2019-05-01T10:25:48.096Z,17.60
2019-05-01T10:28:30.043Z,17.70
2019-05-01T10:31:27.488Z,17.60
2019-05-01T10:34:09.176Z,17.60
2019-05-01T10:36:54.474Z,17.70
2019-05-01T10:39:30.227Z,17.60
2019-05-01T10:42:03.459Z,17.60
2019-05-01T10:44:37.198Z,17.60
2019-05-01T10:47:11.303Z,17.60
2019-05-01T10:49:45.748Z,17.50
2019-05-01T10:52:19.428Z,17.60
2019-05-01T10:54:53.620Z,17.70
2019-05-01T10:57:27.524Z,17.70
2019-05-01T11:00:01.404Z,17.90
2019-05-01T11:02:35.373Z,18.10
2019-05-01T11:05:08.857Z,18.40
2019-05-01T11:07:50.762Z,18.50
2019-05-01T11:10:24.655Z,18.70
2019-05-01T11:12:59.886Z,19.10
2019-05-01T11:15:33.892Z,19.60
2019-05-01T11:18:08.830Z,20.40
2019-05-01T11:20:42.761Z,21.80
2019-05-01T11:23:16.821Z,22.80
2019-05-01T11:25:50.213Z,23.60
2019-05-01T11:28:24.123Z,24.00
2019-05-01T11:30:59.833Z,24.40
2019-05-01T11:33:46.683Z,24.30
2019-05-01T11:36:48.670Z,23.70
2019-05-01T11:39:46.176Z,23.40
2019-05-01T11:42:20.840Z,24.30
2019-05-01T11:44:55.065Z,24.50
2019-05-01T11:47:29.863Z,24.40
2019-05-01T11:50:03.443Z,24.60
2019-05-01T11:52:37.106Z,24.50
2019-05-01T11:55:11.044Z,24.90
2019-05-01T11:57:44.830Z,25.30
2019-05-01T12:00:20.968Z,25.70
2019-05-01T12:02:55.731Z,25.40
2019-05-01T12:05:29.379Z,25.90
2019-05-01T12:08:04.403Z,26.30
2019-05-01T12:10:39.413Z,25.90
2019-05-01T12:13:14.075Z,25.10
2019-05-01T12:15:51.676Z,25.20
2019-05-01T12:18:26.098Z,23.90
2019-05-01T12:21:03.500Z,23.20
2019-05-01T12:23:37.849Z,23.20
2019-05-01T12:26:13.805Z,23.60
2019-05-01T12:28:49.448Z,24.40
2019-05-01T12:31:23.606Z,24.50
2019-05-01T12:33:56.658Z,24.90
2019-05-01T12:36:36.334Z,24.90
2019-05-01T12:39:12.353Z,24.90
2019-05-01T12:42:00.232Z,25.10
2019-05-01T12:44:34.409Z,25.60
2019-05-01T12:47:16.610Z,24.90
2019-05-01T12:49:55.562Z,25.00
2019-05-01T12:52:54.129Z,24.90
2019-05-01T12:55:34.206Z,24.50
2019-05-01T12:58:08.391Z,24.60
2019-05-01T13:00:50.145Z,25.20
2019-05-01T13:03:24.352Z,25.50
2019-05-01T13:05:58.883Z,25.50
2019-05-01T13:08:34.263Z,25.20
2019-05-01T13:11:09.140Z,25.10
2019-05-01T13:13:44.073Z,24.50
2019-05-01T13:16:18.459Z,24.30
2019-05-01T13:18:55.476Z,24.50
2019-05-01T13:21:29.975Z,24.70
2019-05-01T13:24:07.965Z,24.80
2019-05-01T13:26:52.429Z,25.20
2019-05-01T13:29:48.379Z,25.40
2019-05-01T13:32:53.034Z,24.90
2019-05-01T13:35:30.535Z,24.50
2019-05-01T13:38:05.129Z,23.60
2019-05-01T13:40:39.861Z,23.10
2019-05-01T13:43:15.175Z,22.70
2019-05-01T13:45:49.710Z,22.10
2019-05-01T13:48:23.424Z,22.00
2019-05-01T13:50:57.594Z,22.10
2019-05-01T13:53:32.325Z,22.60
2019-05-01T13:56:06.776Z,23.40
2019-05-01T13:58:40.687Z,23.80
2019-05-01T14:01:16.262Z,23.80
2019-05-01T14:03:52.286Z,23.80
2019-05-01T14:06:27.972Z,24.50
2019-05-01T14:09:02.250Z,24.70
2019-05-01T14:11:36.985Z,24.40
2019-05-01T14:14:11.612Z,23.60
2019-05-01T14:16:46.686Z,22.80
2019-05-01T14:19:21.896Z,23.70
2019-05-01T14:22:23.660Z,23.80
2019-05-01T14:24:59.560Z,24.50
2019-05-01T14:27:33.142Z,24.50
2019-05-01T14:30:07.129Z,25.10
2019-05-01T14:32:44.069Z,25.80
2019-05-01T14:35:17.336Z,26.10
2019-05-01T14:37:52.787Z,26.10
2019-05-01T14:40:26.792Z,25.80
2019-05-01T14:43:00.935Z,26.00
2019-05-01T14:45:35.172Z,26.10
2019-05-01T14:48:09.415Z,26.10
2019-05-01T14:50:46.175Z,25.80
2019-05-01T14:53:20.002Z,25.80
2019-05-01T14:55:53.780Z,26.00
2019-05-01T14:58:28.567Z,25.80
2019-05-01T15:01:02.999Z,25.30
2019-05-01T15:03:41.531Z,24.50
2019-05-01T15:06:25.354Z,23.70
2019-05-01T15:09:05.277Z,22.80
2019-05-01T15:11:43.983Z,22.10
2019-05-01T15:14:42.196Z,21.30
2019-05-01T15:17:29.456Z,20.80
2019-05-01T15:20:05.576Z,20.30
2019-05-01T15:22:40.947Z,19.80
2019-05-01T15:25:15.361Z,19.50
2019-05-01T15:27:49.982Z,19.40
2019-05-01T15:30:23.881Z,19.10
2019-05-01T15:33:00.517Z,19.00
2019-05-01T15:35:34.586Z,18.90
2019-05-01T15:38:07.718Z,18.80
2019-05-01T15:40:51.614Z,18.70
2019-05-01T15:43:29.304Z,18.70
2019-05-01T15:46:03.012Z,18.50
2019-05-01T15:48:36.516Z,18.40
2019-05-01T15:51:10.963Z,18.30
2019-05-01T15:53:45.239Z,18.20
2019-05-01T15:56:19.690Z,18.20
2019-05-01T15:58:54.045Z,18.20
2019-05-01T16:01:29.921Z,18.20
2019-05-01T16:04:04.810Z,18.20
2019-05-01T16:06:39.785Z,18.20
2019-05-01T16:09:15.633Z,18.20
2019-05-01T16:12:14.455Z,18.20
2019-05-01T16:14:52.003Z,18.20
2019-05-01T16:17:29.372Z,18.30
2019-05-01T16:20:03.865Z,18.40
2019-05-01T16:22:41.178Z,18.40
2019-05-01T16:25:17.153Z,18.40
2019-05-01T16:27:53.757Z,18.50
2019-05-01T16:30:28.429Z,18.50
2019-05-01T16:33:02.404Z,18.60
2019-05-01T16:35:36.476Z,18.50
2019-05-01T16:38:23.042Z,18.40
2019-05-01T16:41:02.702Z,18.30
2019-05-01T16:43:36.990Z,18.10
2019-05-01T16:46:11.967Z,18.00
2019-05-01T16:48:47.142Z,17.90
2019-05-01T16:51:21.340Z,17.90
2019-05-01T16:53:56.408Z,17.80
2019-05-01T16:56:33.082Z,17.80
2019-05-01T16:59:07.067Z,17.90
2019-05-01T17:01:56.540Z,17.90
2019-05-01T17:04:56.095Z,17.90
2019-05-01T17:07:38.962Z,17.90
2019-05-01T17:10:25.033Z,17.80
2019-05-01T17:12:59.208Z,17.80
2019-05-01T17:15:48.733Z,17.70
2019-05-01T17:18:23.771Z,17.70
2019-05-01T17:20:58.275Z,17.60
2019-05-01T17:23:33.618Z,17.50
2019-05-01T17:26:07.816Z,17.30
2019-05-01T17:28:41.862Z,17.20
2019-05-01T17:31:16.828Z,17.10
2019-05-01T17:33:55.497Z,16.90
2019-05-01T17:36:28.053Z,16.80
2019-05-01T17:39:06.996Z,16.70
2019-05-01T17:41:41.178Z,16.60
2019-05-01T17:44:20.001Z,16.50
2019-05-01T17:46:53.122Z,16.40
2019-05-01T17:49:29.858Z,16.30
2019-05-01T17:52:03.953Z,16.10
2019-05-01T17:54:38.833Z,16.10
2019-05-01T17:57:13.132Z,16.00
2019-05-01T17:59:48.848Z,15.90
2019-05-01T18:02:50.318Z,15.80
2019-05-01T18:05:46.610Z,15.80
2019-05-01T18:08:23.514Z,15.70
2019-05-01T18:11:00.215Z,15.60
2019-05-01T18:13:39.173Z,15.50
2019-05-01T18:16:24.137Z,15.40
2019-05-01T18:18:58.300Z,15.40
2019-05-01T18:21:32.440Z,15.30
2019-05-01T18:24:25.886Z,15.20
2019-05-01T18:27:14.615Z,15.20
2019-05-01T18:30:03.965Z,15.10
2019-05-01T18:32:47.600Z,15.10
2019-05-01T18:35:19.496Z,15.00
2019-05-01T18:38:11.739Z,14.90
2019-05-01T18:40:51.285Z,14.80
2019-05-01T18:43:32.071Z,14.70
2019-05-01T18:46:08.109Z,14.60
2019-05-01T18:48:42.400Z,14.40
2019-05-01T18:51:20.880Z,14.20
2019-05-01T18:53:58.703Z,14.10
2019-05-01T18:56:38.098Z,14.00
2019-05-01T18:59:12.015Z,13.90
2019-05-01T19:01:48.465Z,13.90
2019-05-01T19:04:31.445Z,13.80
2019-05-01T19:07:05.620Z,13.70
2019-05-01T19:09:40.752Z,13.60
2019-05-01T19:12:16.173Z,13.60
2019-05-01T19:14:51.349Z,13.60
2019-05-01T19:17:29.710Z,13.50
2019-05-01T19:20:04.458Z,13.40
2019-05-01T19:22:39.948Z,13.20
2019-05-01T19:25:18.028Z,13.10
2019-05-01T19:27:53.841Z,13.00
2019-05-01T19:30:29.628Z,12.80
2019-05-01T19:33:05.354Z,12.70
2019-05-01T19:35:40.217Z,12.70
2019-05-01T19:38:15.160Z,12.60
2019-05-01T19:40:50.591Z,12.60
2019-05-01T19:43:25.842Z,12.60
2019-05-01T19:46:01.049Z,12.50
2019-05-01T19:48:37.138Z,12.40
2019-05-01T19:51:12.610Z,12.20
2019-05-01T19:54:05.112Z,12.20
2019-05-01T19:56:43.278Z,12.10
2019-05-01T19:59:18.820Z,12.00
2019-05-01T20:01:52.976Z,11.90
2019-05-01T20:04:27.430Z,11.90
2019-05-01T20:07:02.907Z,11.90
2019-05-01T20:09:37.449Z,11.80
2019-05-01T20:12:12.330Z,11.80
2019-05-01T20:14:48.283Z,11.80
2019-05-01T20:17:26.720Z,11.70
2019-05-01T20:20:02.329Z,11.70
2019-05-01T20:22:41.025Z,11.70
2019-05-01T20:25:19.374Z,11.60
2019-05-01T20:27:54.632Z,11.50
2019-05-01T20:30:32.943Z,11.40
2019-05-01T20:33:14.480Z,11.40
2019-05-01T20:36:00.306Z,11.20
2019-05-01T20:38:37.298Z,11.20
2019-05-01T20:41:18.082Z,11.00
2019-05-01T20:43:53.360Z,10.90
2019-05-01T20:46:28.063Z,10.80
2019-05-01T20:49:06.472Z,10.70
2019-05-01T20:51:40.651Z,10.70
2019-05-01T20:54:14.706Z,10.70
2019-05-01T20:56:53.869Z,10.70
2019-05-01T20:59:28.409Z,10.70
2019-05-01T21:02:07.637Z,10.70
2019-05-01T21:05:06.575Z,10.70
2019-05-01T21:07:47.238Z,10.70
2019-05-01T21:10:24.902Z,10.60
2019-05-01T21:12:59.429Z,10.50
2019-05-01T21:15:35.601Z,10.40
2019-05-01T21:18:09.750Z,10.30
2019-05-01T21:20:44.955Z,10.20
2019-05-01T21:23:20.829Z,10.20
2019-05-01T21:25:55.077Z,10.10
2019-05-01T21:28:29.533Z,10.00
2019-05-01T21:31:03.939Z,10.00
2019-05-01T21:33:40.751Z,9.90
2019-05-01T21:36:13.712Z,9.90
2019-05-01T21:38:48.072Z,9.80
2019-05-01T21:41:24.339Z,9.80
2019-05-01T21:43:57.285Z,9.80
2019-05-01T21:46:30.717Z,9.70
2019-05-01T21:49:04.665Z,9.60
2019-05-01T21:51:44.365Z,9.50
2019-05-01T21:54:16.089Z,9.50
2019-05-01T21:56:48.924Z,9.50
2019-05-01T21:59:22.033Z,9.50
2019-05-01T22:01:57.054Z,9.50
2019-05-01T22:04:32.048Z,9.50
2019-05-01T22:07:08.085Z,9.50
2019-05-01T22:09:45.759Z,9.50
2019-05-01T22:12:17.884Z,9.50
2019-05-01T22:15:06.217Z,9.40
2019-05-01T22:17:58.097Z,9.30
2019-05-01T22:20:40.857Z,9.30
2019-05-01T22:23:21.887Z,9.30
2019-05-01T22:25:56.525Z,9.20
2019-05-01T22:28:38.060Z,9.20
2019-05-01T22:31:23.351Z,9.10
2019-05-01T22:34:05.609Z,9.00
2019-05-01T22:36:39.397Z,9.00
2019-05-01T22:39:13.492Z,8.90
2019-05-01T22:41:47.456Z,8.90
2019-05-01T22:44:20.969Z,8.90
2019-05-01T22:46:54.845Z,8.80
2019-05-01T22:49:28.353Z,8.80
2019-05-01T22:52:01.747Z,8.80
2019-05-01T22:54:35.427Z,8.70
2019-05-01T22:57:11.532Z,8.60
2019-05-01T22:59:44.851Z,8.50
2019-05-01T23:02:33.367Z,8.50
2019-05-01T23:05:07.157Z,8.40
2019-05-01T23:07:41.282Z,8.40
2019-05-01T23:10:15.692Z,8.40
2019-05-01T23:12:48.924Z,8.30
2019-05-01T23:15:24.583Z,8.30
2019-05-01T23:17:58.012Z,8.30
2019-05-01T23:20:34.658Z,8.30
2019-05-01T23:23:07.365Z,8.30
2019-05-01T23:25:42.415Z,8.30
2019-05-01T23:28:15.623Z,8.30
2019-05-01T23:30:49.962Z,8.30
2019-05-01T23:33:23.349Z,8.30
2019-05-01T23:35:57.295Z,8.20
2019-05-01T23:38:31.132Z,8.10
2019-05-01T23:41:04.865Z,8.00
2019-05-01T23:43:38.806Z,7.90
2019-05-01T23:46:12.519Z,7.90
2019-05-01T23:48:45.449Z,7.90
2019-05-01T23:51:23.653Z,7.90
2019-05-01T23:53:54.719Z,7.80
2019-05-01T23:56:30.995Z,7.80
2019-05-01T23:59:04.369Z,7.80
